sensor_id;sensor_type;location;lat;lon;timestamp;pressure;altitude;pressure_sealevel;temperature;humidity
17254;BME280;32542;52.832;13.816;2023-06-19T00:00:17;101320.09;;;23.43;50.17
17254;BME280;32542;52.832;13.816;2023-06-19T00:03:20;101324.56;;;23.42;50.26
17254;BME280;32542;52.832;13.816;2023-06-19T00:06:23;101328.22;;;23.41;50.09
17254;BME280;32542;52.832;13.816;2023-06-19T00:09:26;101326.47;;;23.40;50.06
17254;BME280;32542;52.832;13.816;2023-06-19T00:12:30;101333.56;;;23.41;50.29
17254;BME280;32542;52.832;13.816;2023-06-19T00:15:33;101328.22;;;23.41;50.27
17254;BME280;32542;52.832;13.816;2023-06-19T00:18:36;101324.66;;;23.41;50.39
17254;BME280;32542;52.832;13.816;2023-06-19T00:21:42;101322.88;;;23.41;50.43
17254;BME280;32542;52.832;13.816;2023-06-19T00:24:45;101328.22;;;23.41;49.98
17254;BME280;32542;52.832;13.816;2023-06-19T00:27:50;101331.03;;;23.38;50.11
17254;BME280;32542;52.832;13.816;2023-06-19T00:30:53;101323.00;;;23.38;50.18
17254;BME280;32542;52.832;13.816;2023-06-19T00:33:56;101326.59;;;23.37;50.22
17254;BME280;32542;52.832;13.816;2023-06-19T00:36:59;101330.16;;;23.38;50.04
17254;BME280;32542;52.832;13.816;2023-06-19T00:40:02;101328.44;;;23.37;49.92
17254;BME280;32542;52.832;13.816;2023-06-19T00:43:07;101324.88;;;23.36;50.07
17254;BME280;32542;52.832;13.816;2023-06-19T00:46:11;101325.81;;;23.35;50.04
17254;BME280;32542;52.832;13.816;2023-06-19T00:49:14;101328.47;;;23.35;50.00
17254;BME280;32542;52.832;13.816;2023-06-19T00:52:17;101335.66;;;23.35;50.03
17254;BME280;32542;52.832;13.816;2023-06-19T00:55:21;101323.22;;;23.34;50.07
17254;BME280;32542;52.832;13.816;2023-06-19T00:58:26;101325.03;;;23.33;50.07
17254;BME280;32542;52.832;13.816;2023-06-19T01:01:29;101325.03;;;23.33;50.07
17254;BME280;32542;52.832;13.816;2023-06-19T01:04:32;101324.19;;;23.33;50.04
17254;BME280;32542;52.832;13.816;2023-06-19T01:07:41;101328.63;;;23.32;50.32
17254;BME280;32542;52.832;13.816;2023-06-19T01:10:50;101325.94;;;23.32;50.16
17254;BME280;32542;52.832;13.816;2023-06-19T01:13:59;101323.28;;;23.32;50.13
17254;BME280;32542;52.832;13.816;2023-06-19T01:17:03;101319.72;;;23.32;50.31
17254;BME280;32542;52.832;13.816;2023-06-19T01:20:08;101321.53;;;23.31;50.25
17254;BME280;32542;52.832;13.816;2023-06-19T01:23:14;101317.06;;;23.32;50.29
17254;BME280;32542;52.832;13.816;2023-06-19T01:26:17;101321.53;;;23.31;50.10
17254;BME280;32542;52.832;13.816;2023-06-19T01:29:20;101316.19;;;23.31;50.20
17254;BME280;32542;52.832;13.816;2023-06-19T01:32:31;101310.00;;;23.31;50.03
17254;BME280;32542;52.832;13.816;2023-06-19T01:35:38;101297.56;;;23.29;50.19
17254;BME280;32542;52.832;13.816;2023-06-19T01:38:44;101296.69;;;23.29;50.00
17254;BME280;32542;52.832;13.816;2023-06-19T01:41:48;101296.69;;;23.29;50.19
17254;BME280;32542;52.832;13.816;2023-06-19T01:44:51;101293.16;;;23.28;50.22
17254;BME280;32542;52.832;13.816;2023-06-19T01:47:55;101294.97;;;23.28;50.17
17254;BME280;32542;52.832;13.816;2023-06-19T01:50:58;101294.09;;;23.27;50.20
17254;BME280;32542;52.832;13.816;2023-06-19T01:54:03;101294.97;;;23.28;50.36
17254;BME280;32542;52.832;13.816;2023-06-19T01:57:07;101297.69;;;23.26;50.21
17254;BME280;32542;52.832;13.816;2023-06-19T02:00:11;101288.84;;;23.26;50.28
17254;BME280;32542;52.832;13.816;2023-06-19T02:03:14;101284.44;;;23.25;50.42
17254;BME280;32542;52.832;13.816;2023-06-19T02:06:17;101290.66;;;23.25;50.12
17254;BME280;32542;52.832;13.816;2023-06-19T02:09:22;101282.63;;;23.25;50.42
17254;BME280;32542;52.832;13.816;2023-06-19T02:12:25;101281.75;;;23.25;50.38
17254;BME280;32542;52.832;13.816;2023-06-19T02:15:29;101279.09;;;23.25;50.21
17254;BME280;32542;52.832;13.816;2023-06-19T02:18:32;101272.88;;;23.24;50.01
17254;BME280;32542;52.832;13.816;2023-06-19T02:21:35;101270.28;;;23.23;50.30
17254;BME280;32542;52.832;13.816;2023-06-19T02:24:39;101274.69;;;23.24;50.10
17254;BME280;32542;52.832;13.816;2023-06-19T02:27:43;101271.16;;;23.23;50.21
17254;BME280;32542;52.832;13.816;2023-06-19T02:30:45;101269.41;;;23.22;50.17
17254;BME280;32542;52.832;13.816;2023-06-19T02:33:49;101273.03;;;23.21;50.32
17254;BME280;32542;52.832;13.816;2023-06-19T02:36:53;101268.56;;;23.22;50.13
17254;BME280;32542;52.832;13.816;2023-06-19T02:39:57;101269.50;;;23.21;50.09
17254;BME280;32542;52.832;13.816;2023-06-19T02:43:00;101264.16;;;23.21;50.27
17254;BME280;32542;52.832;13.816;2023-06-19T02:46:03;101269.50;;;23.21;50.26
17254;BME280;32542;52.832;13.816;2023-06-19T02:49:08;101265.94;;;23.20;50.01
17254;BME280;32542;52.832;13.816;2023-06-19T02:52:11;101262.44;;;23.20;50.35
17254;BME280;32542;52.832;13.816;2023-06-19T02:55:15;101260.59;;;23.20;50.33
17254;BME280;32542;52.832;13.816;2023-06-19T02:58:18;101259.75;;;23.20;50.40
17254;BME280;32542;52.832;13.816;2023-06-19T03:01:21;101259.75;;;23.20;50.31
17254;BME280;32542;52.832;13.816;2023-06-19T03:04:24;101265.09;;;23.20;50.29
17254;BME280;32542;52.832;13.816;2023-06-19T03:07:30;101270.44;;;23.20;50.19
17254;BME280;32542;52.832;13.816;2023-06-19T03:10:35;101265.16;;;23.18;50.19
17254;BME280;32542;52.832;13.816;2023-06-19T03:13:45;101263.34;;;23.19;50.25
17254;BME280;32542;52.832;13.816;2023-06-19T03:16:48;101262.50;;;23.18;50.33
17254;BME280;32542;52.832;13.816;2023-06-19T03:19:51;101266.97;;;23.18;50.32
17254;BME280;32542;52.832;13.816;2023-06-19T03:22:54;101262.50;;;23.18;50.49
17254;BME280;32542;52.832;13.816;2023-06-19T03:26:00;101265.09;;;23.20;50.34
17254;BME280;32542;52.832;13.816;2023-06-19T03:29:03;101267.81;;;23.18;50.36
17254;BME280;32542;52.832;13.816;2023-06-19T03:32:29;101265.25;;;23.17;50.23
17254;BME280;32542;52.832;13.816;2023-06-19T03:35:34;101275.94;;;23.17;50.37
17254;BME280;32542;52.832;13.816;2023-06-19T03:38:37;101276.81;;;23.17;50.41
17254;BME280;32542;52.832;13.816;2023-06-19T03:41:43;101278.59;;;23.17;50.54
17254;BME280;32542;52.832;13.816;2023-06-19T03:44:46;101281.28;;;23.17;50.35
17254;BME280;32542;52.832;13.816;2023-06-19T03:47:49;101286.63;;;23.17;50.34
17254;BME280;32542;52.832;13.816;2023-06-19T03:50:54;101283.94;;;23.17;50.66
17254;BME280;32542;52.832;13.816;2023-06-19T03:53:57;101291.97;;;23.17;50.40
17254;BME280;32542;52.832;13.816;2023-06-19T03:57:01;101291.97;;;23.17;50.34
17254;BME280;32542;52.832;13.816;2023-06-19T04:00:06;101300.91;;;23.16;50.44
17254;BME280;32542;52.832;13.816;2023-06-19T04:03:12;101292.88;;;23.16;50.39
17254;BME280;32542;52.832;13.816;2023-06-19T04:06:16;101300.91;;;23.16;50.26
17254;BME280;32542;52.832;13.816;2023-06-19T04:09:19;101309.88;;;23.15;50.25
17254;BME280;32542;52.832;13.816;2023-06-19T04:12:24;101311.69;;;23.14;50.27
17254;BME280;32542;52.832;13.816;2023-06-19T04:15:27;101308.13;;;23.14;50.42
17254;BME280;32542;52.832;13.816;2023-06-19T04:18:30;101307.22;;;23.15;50.58
17254;BME280;32542;52.832;13.816;2023-06-19T04:21:33;101306.41;;;23.13;50.28
17254;BME280;32542;52.832;13.816;2023-06-19T04:24:35;101301.06;;;23.13;50.47
17254;BME280;32542;52.832;13.816;2023-06-19T04:27:40;101303.75;;;23.13;50.27
17254;BME280;32542;52.832;13.816;2023-06-19T04:30:43;101305.53;;;23.12;50.37
17254;BME280;32542;52.832;13.816;2023-06-19T04:33:46;101293.16;;;23.11;50.46
17254;BME280;32542;52.832;13.816;2023-06-19T04:36:48;101300.19;;;23.12;50.38
17254;BME280;32542;52.832;13.816;2023-06-19T04:39:51;101296.66;;;23.12;50.38
17254;BME280;32542;52.832;13.816;2023-06-19T04:42:56;101298.50;;;23.11;50.35
17254;BME280;32542;52.832;13.816;2023-06-19T04:45:58;101280.63;;;23.12;50.59
17254;BME280;32542;52.832;13.816;2023-06-19T04:49:01;101277.13;;;23.11;50.69
17254;BME280;32542;52.832;13.816;2023-06-19T04:52:06;101285.13;;;23.11;50.57
17254;BME280;32542;52.832;13.816;2023-06-19T04:55:09;101286.84;;;23.12;51.06
17254;BME280;32542;52.832;13.816;2023-06-19T04:58:13;101285.03;;;23.13;51.12
17254;BME280;32542;52.832;13.816;2023-06-19T05:01:17;101290.38;;;23.13;50.97
17254;BME280;32542;52.832;13.816;2023-06-19T05:04:24;101279.69;;;23.13;51.07
17254;BME280;32542;52.832;13.816;2023-06-19T05:07:27;101287.63;;;23.14;51.16
17254;BME280;32542;52.832;13.816;2023-06-19T05:10:30;101292.97;;;23.14;51.27
17254;BME280;32542;52.832;13.816;2023-06-19T05:13:34;101292.09;;;23.14;50.95
17254;BME280;32542;52.832;13.816;2023-06-19T05:16:37;101293.84;;;23.15;51.00
17254;BME280;32542;52.832;13.816;2023-06-19T05:19:40;101288.50;;;23.15;50.94
17254;BME280;32542;52.832;13.816;2023-06-19T05:22:43;101286.75;;;23.14;51.25
17254;BME280;32542;52.832;13.816;2023-06-19T05:25:46;101285.84;;;23.15;51.13
17254;BME280;32542;52.832;13.816;2023-06-19T05:28:50;101287.63;;;23.14;51.17
17254;BME280;32542;52.832;13.816;2023-06-19T05:31:53;101292.97;;;23.14;51.20
17254;BME280;32542;52.832;13.816;2023-06-19T05:34:56;101301.88;;;23.15;51.09
17254;BME280;32542;52.832;13.816;2023-06-19T05:37:59;101304.53;;;23.15;51.34
17254;BME280;32542;52.832;13.816;2023-06-19T05:41:02;101316.09;;;23.15;51.28
17254;BME280;32542;52.832;13.816;2023-06-19T05:44:07;101315.22;;;23.15;51.27
17254;BME280;32542;52.832;13.816;2023-06-19T05:47:09;101316.09;;;23.15;51.09
17254;BME280;32542;52.832;13.816;2023-06-19T05:50:13;101320.56;;;23.15;51.33
17254;BME280;32542;52.832;13.816;2023-06-19T05:53:16;101316.94;;;23.16;51.25
17254;BME280;32542;52.832;13.816;2023-06-19T05:56:19;101323.16;;;23.16;51.34
17254;BME280;32542;52.832;13.816;2023-06-19T05:59:23;101314.25;;;23.16;51.32
17254;BME280;32542;52.832;13.816;2023-06-19T06:02:26;101316.94;;;23.16;51.43
17254;BME280;32542;52.832;13.816;2023-06-19T06:05:30;101304.53;;;23.15;51.40
17254;BME280;32542;52.832;13.816;2023-06-19T06:08:33;101310.75;;;23.15;51.72
17254;BME280;32542;52.832;13.816;2023-06-19T06:11:36;101311.59;;;23.16;51.56
17254;BME280;32542;52.832;13.816;2023-06-19T06:14:41;101317.81;;;23.16;51.58
17254;BME280;32542;52.832;13.816;2023-06-19T06:17:44;101316.94;;;23.16;51.40
17254;BME280;32542;52.832;13.816;2023-06-19T06:20:48;101304.53;;;23.15;51.35
17254;BME280;32542;52.832;13.816;2023-06-19T06:23:51;101311.59;;;23.16;51.15
17254;BME280;32542;52.832;13.816;2023-06-19T06:26:54;101314.25;;;23.16;51.37
17254;BME280;32542;52.832;13.816;2023-06-19T06:29:59;101308.91;;;23.16;51.50
17254;BME280;32542;52.832;13.816;2023-06-19T06:33:02;101306.25;;;23.16;51.39
17254;BME280;32542;52.832;13.816;2023-06-19T06:36:05;101301.78;;;23.16;51.46
17254;BME280;32542;52.832;13.816;2023-06-19T06:39:10;101300.06;;;23.15;51.46
17254;BME280;32542;52.832;13.816;2023-06-19T06:42:13;101295.56;;;23.16;51.56
17254;BME280;32542;52.832;13.816;2023-06-19T06:45:17;101295.56;;;23.16;51.19
17254;BME280;32542;52.832;13.816;2023-06-19T06:48:20;101296.44;;;23.16;51.37
17254;BME280;32542;52.832;13.816;2023-06-19T06:51:23;101296.44;;;23.16;51.40
17254;BME280;32542;52.832;13.816;2023-06-19T06:54:26;101306.25;;;23.16;51.81
17254;BME280;32542;52.832;13.816;2023-06-19T06:57:28;101299.97;;;23.17;51.87
17254;BME280;32542;52.832;13.816;2023-06-19T07:00:33;101300.91;;;23.16;51.37
17254;BME280;32542;52.832;13.816;2023-06-19T07:03:35;101301.78;;;23.16;51.69
17254;BME280;32542;52.832;13.816;2023-06-19T07:06:38;101300.84;;;23.17;51.70
17254;BME280;32542;52.832;13.816;2023-06-19T07:09:41;101305.31;;;23.17;51.61
17254;BME280;32542;52.832;13.816;2023-06-19T07:12:45;101312.47;;;23.16;51.77
17254;BME280;32542;52.832;13.816;2023-06-19T07:15:49;101310.66;;;23.17;51.59
17254;BME280;32542;52.832;13.816;2023-06-19T07:18:52;101318.69;;;23.17;51.60
17254;BME280;32542;52.832;13.816;2023-06-19T07:21:55;101325.75;;;23.18;51.73
17254;BME280;32542;52.832;13.816;2023-06-19T07:24:58;101323.03;;;23.19;51.59
17254;BME280;32542;52.832;13.816;2023-06-19T07:28:02;101315.78;;;23.21;52.10
17254;BME280;32542;52.832;13.816;2023-06-19T07:31:07;101326.41;;;23.23;52.37
17254;BME280;32542;52.832;13.816;2023-06-19T07:34:11;101337.88;;;23.25;52.57
17254;BME280;32542;52.832;13.816;2023-06-19T07:37:14;101348.56;;;23.25;52.13
17254;BME280;32542;52.832;13.816;2023-06-19T07:40:19;101350.31;;;23.26;52.80
17254;BME280;32542;52.832;13.816;2023-06-19T07:43:22;101343.06;;;23.28;52.59
17254;BME280;32542;52.832;13.816;2023-06-19T07:46:27;101334.09;;;23.29;52.94
17254;BME280;32542;52.832;13.816;2023-06-19T07:49:30;101341.19;;;23.30;52.69
17254;BME280;32542;52.832;13.816;2023-06-19T07:52:32;101348.25;;;23.31;52.84
17254;BME280;32542;52.832;13.816;2023-06-19T07:55:36;101342.00;;;23.32;52.88
17254;BME280;32542;52.832;13.816;2023-06-19T07:58:38;101348.25;;;23.33;53.25
17254;BME280;32542;52.832;13.816;2023-06-19T08:01:43;101345.56;;;23.33;53.60
17254;BME280;32542;52.832;13.816;2023-06-19T08:04:46;101339.31;;;23.32;53.17
17254;BME280;32542;52.832;13.816;2023-06-19T08:07:49;101349.06;;;23.33;53.11
17254;BME280;32542;52.832;13.816;2023-06-19T08:10:52;101349.94;;;23.34;53.20
17254;BME280;32542;52.832;13.816;2023-06-19T08:13:55;101348.16;;;23.34;52.98
17254;BME280;32542;52.832;13.816;2023-06-19T08:17:00;101348.06;;;23.36;53.16
17254;BME280;32542;52.832;13.816;2023-06-19T08:20:03;101345.31;;;23.37;53.16
17254;BME280;32542;52.832;13.816;2023-06-19T08:23:06;101353.31;;;23.37;53.40
17254;BME280;32542;52.832;13.816;2023-06-19T08:26:10;101352.31;;;23.40;53.23
17254;BME280;32542;52.832;13.816;2023-06-19T08:29:13;101354.16;;;23.39;53.14
17254;BME280;32542;52.832;13.816;2023-06-19T08:32:17;101360.28;;;23.41;53.44
17254;BME280;32542;52.832;13.816;2023-06-19T08:35:20;101358.44;;;23.42;53.49
17254;BME280;32542;52.832;13.816;2023-06-19T08:38:23;101354.84;;;23.43;53.52
17254;BME280;32542;52.832;13.816;2023-06-19T08:41:26;101347.72;;;23.43;53.28
17254;BME280;32542;52.832;13.816;2023-06-19T08:44:29;101349.41;;;23.44;53.30
17254;BME280;32542;52.832;13.816;2023-06-19T08:47:34;101356.50;;;23.45;53.61
17254;BME280;32542;52.832;13.816;2023-06-19T08:50:37;101359.97;;;23.47;53.55
17254;BME280;32542;52.832;13.816;2023-06-19T08:53:45;101348.41;;;23.47;53.60
17254;BME280;32542;52.832;13.816;2023-06-19T08:56:48;101358.22;;;23.46;53.66
17254;BME280;32542;52.832;13.816;2023-06-19T08:59:51;101352.00;;;23.46;53.38
17254;BME280;32542;52.832;13.816;2023-06-19T09:03:01;101353.84;;;23.45;53.46
17254;BME280;32542;52.832;13.816;2023-06-19T09:06:15;101351.16;;;23.45;53.49
17254;BME280;32542;52.832;13.816;2023-06-19T09:09:19;101349.41;;;23.44;53.76
17254;BME280;32542;52.832;13.816;2023-06-19T09:12:23;101355.56;;;23.46;53.70
17254;BME280;32542;52.832;13.816;2023-06-19T09:15:34;101353.75;;;23.47;53.69
17254;BME280;32542;52.832;13.816;2023-06-19T09:18:45;101354.63;;;23.47;53.71
17254;BME280;32542;52.832;13.816;2023-06-19T09:21:51;101355.41;;;23.49;53.96
17254;BME280;32542;52.832;13.816;2023-06-19T09:24:59;101357.13;;;23.50;53.74
17254;BME280;32542;52.832;13.816;2023-06-19T09:28:03;101348.28;;;23.50;53.75
17254;BME280;32542;52.832;13.816;2023-06-19T09:31:06;101349.09;;;23.50;54.09
17254;BME280;32542;52.832;13.816;2023-06-19T09:34:10;101347.22;;;23.52;54.15
17254;BME280;32542;52.832;13.816;2023-06-19T09:37:13;101343.63;;;23.53;54.46
17254;BME280;32542;52.832;13.816;2023-06-19T09:40:16;101338.28;;;23.53;54.08
17254;BME280;32542;52.832;13.816;2023-06-19T09:43:23;101343.63;;;23.53;54.12
17254;BME280;32542;52.832;13.816;2023-06-19T09:46:29;101340.06;;;23.53;53.81
17254;BME280;32542;52.832;13.816;2023-06-19T09:49:35;101334.63;;;23.54;53.69
17254;BME280;32542;52.832;13.816;2023-06-19T09:52:39;101332.84;;;23.55;54.04
17254;BME280;32542;52.832;13.816;2023-06-19T09:55:43;101337.25;;;23.56;53.97
17254;BME280;32542;52.832;13.816;2023-06-19T09:58:47;101339.94;;;23.56;54.39
17254;BME280;32542;52.832;13.816;2023-06-19T10:01:51;101333.72;;;23.55;54.37
17254;BME280;32542;52.832;13.816;2023-06-19T10:04:56;101338.97;;;23.57;54.82
17254;BME280;32542;52.832;13.816;2023-06-19T10:07:59;101331.91;;;23.56;54.70
17254;BME280;32542;52.832;13.816;2023-06-19T10:11:03;101329.16;;;23.57;54.36
17254;BME280;32542;52.832;13.816;2023-06-19T10:14:06;101342.44;;;23.59;54.98
17254;BME280;32542;52.832;13.816;2023-06-19T10:17:10;101332.63;;;23.59;54.85
17254;BME280;32542;52.832;13.816;2023-06-19T10:20:26;101331.75;;;23.59;54.72
17254;BME280;32542;52.832;13.816;2023-06-19T10:23:37;101335.19;;;23.61;55.10
17254;BME280;32542;52.832;13.816;2023-06-19T10:26:39;101329.81;;;23.62;56.78
17254;BME280;32542;52.832;13.816;2023-06-19T10:29:42;101327.13;;;23.62;55.96
17254;BME280;32542;52.832;13.816;2023-06-19T10:33:03;101335.16;;;23.62;55.45
17254;BME280;32542;52.832;13.816;2023-06-19T10:36:15;101322.72;;;23.61;55.37
17254;BME280;32542;52.832;13.816;2023-06-19T10:39:18;101322.72;;;23.61;54.69
17254;BME280;32542;52.832;13.816;2023-06-19T10:42:22;101324.50;;;23.61;54.49
17254;BME280;32542;52.832;13.816;2023-06-19T10:45:25;101322.63;;;23.63;55.08
17254;BME280;32542;52.832;13.816;2023-06-19T10:48:30;101311.88;;;23.64;55.30
17254;BME280;32542;52.832;13.816;2023-06-19T10:51:35;101316.25;;;23.65;56.13
17254;BME280;32542;52.832;13.816;2023-06-19T10:54:38;101308.16;;;23.67;56.32
17254;BME280;32542;52.832;13.816;2023-06-19T10:57:45;101300.06;;;23.68;56.66
17254;BME280;32542;52.832;13.816;2023-06-19T11:00:48;101298.25;;;23.69;56.25
17254;BME280;32542;52.832;13.816;2023-06-19T11:03:51;101291.09;;;23.69;56.54
17254;BME280;32542;52.832;13.816;2023-06-19T11:06:56;101281.25;;;23.70;56.55
17254;BME280;32542;52.832;13.816;2023-06-19T11:09:59;101291.03;;;23.71;57.25
17254;BME280;32542;52.832;13.816;2023-06-19T11:13:02;101290.94;;;23.72;56.93
17254;BME280;32542;52.832;13.816;2023-06-19T11:16:05;101287.31;;;23.73;57.16
17254;BME280;32542;52.832;13.816;2023-06-19T11:19:08;101281.91;;;23.75;57.58
17254;BME280;32542;52.832;13.816;2023-06-19T11:22:13;101285.34;;;23.77;57.48
17254;BME280;32542;52.832;13.816;2023-06-19T11:25:16;101278.16;;;23.77;57.60
17254;BME280;32542;52.832;13.816;2023-06-19T11:28:19;101274.72;;;23.75;57.85
17254;BME280;32542;52.832;13.816;2023-06-19T11:31:27;101271.09;;;23.76;57.90
17254;BME280;32542;52.832;13.816;2023-06-19T11:34:31;101258.59;;;23.77;58.21
17254;BME280;32542;52.832;13.816;2023-06-19T11:37:36;101254.97;;;23.78;58.49
17254;BME280;32542;52.832;13.816;2023-06-19T11:40:39;101253.94;;;23.80;58.10
17254;BME280;32542;52.832;13.816;2023-06-19T11:43:42;101248.50;;;23.82;58.55
17254;BME280;32542;52.832;13.816;2023-06-19T11:46:45;101252.84;;;23.84;58.36
17254;BME280;32542;52.832;13.816;2023-06-19T11:49:50;101250.94;;;23.86;58.12
17254;BME280;32542;52.832;13.816;2023-06-19T11:52:54;101247.25;;;23.89;58.78
17254;BME280;32542;52.832;13.816;2023-06-19T11:55:59;101247.94;;;23.92;58.95
17254;BME280;32542;52.832;13.816;2023-06-19T11:59:02;101254.06;;;23.94;58.75
17254;BME280;32542;52.832;13.816;2023-06-19T12:02:06;101247.78;;;23.95;58.79
17254;BME280;32542;52.832;13.816;2023-06-19T12:05:09;101247.69;;;23.97;58.61
17254;BME280;32542;52.832;13.816;2023-06-19T12:08:14;101244.97;;;23.98;58.12
17254;BME280;32542;52.832;13.816;2023-06-19T12:11:17;101244.97;;;23.98;58.20
17254;BME280;32542;52.832;13.816;2023-06-19T12:14:20;101250.31;;;23.98;57.46
17254;BME280;32542;52.832;13.816;2023-06-19T12:17:23;101249.34;;;23.99;57.19
17254;BME280;32542;52.832;13.816;2023-06-19T12:20:26;101252.91;;;24.00;57.26
17254;BME280;32542;52.832;13.816;2023-06-19T12:23:30;101239.44;;;24.01;57.72
17254;BME280;32542;52.832;13.816;2023-06-19T12:26:34;101234.97;;;24.02;58.05
17254;BME280;32542;52.832;13.816;2023-06-19T12:29:38;101232.19;;;24.03;58.13
17254;BME280;32542;52.832;13.816;2023-06-19T12:32:41;101223.25;;;24.05;57.79
17254;BME280;32542;52.832;13.816;2023-06-19T12:35:45;101224.97;;;24.06;57.48
17254;BME280;32542;52.832;13.816;2023-06-19T12:38:51;101228.44;;;24.08;57.70
17254;BME280;32542;52.832;13.816;2023-06-19T12:41:55;101230.94;;;24.11;56.97
17254;BME280;32542;52.832;13.816;2023-06-19T12:44:58;101230.84;;;24.12;56.31
17254;BME280;32542;52.832;13.816;2023-06-19T12:48:01;101213.88;;;24.13;56.01
17254;BME280;32542;52.832;13.816;2023-06-19T12:51:04;101221.81;;;24.15;55.69
17254;BME280;32542;52.832;13.816;2023-06-19T12:54:08;101227.94;;;24.17;55.43
17254;BME280;32542;52.832;13.816;2023-06-19T12:57:11;101219.81;;;24.18;55.59
17254;BME280;32542;52.832;13.816;2023-06-19T13:00:14;101222.44;;;24.20;55.39
17254;BME280;32542;52.832;13.816;2023-06-19T13:03:17;101224.13;;;24.21;55.13
17254;BME280;32542;52.832;13.816;2023-06-19T13:06:21;101227.69;;;24.21;54.70
17254;BME280;32542;52.832;13.816;2023-06-19T13:09:25;101224.91;;;24.23;54.90
17254;BME280;32542;52.832;13.816;2023-06-19T13:12:28;101227.59;;;24.23;54.77
17254;BME280;32542;52.832;13.816;2023-06-19T13:15:31;101229.34;;;24.24;54.56
17254;BME280;32542;52.832;13.816;2023-06-19T13:18:35;101227.44;;;24.26;54.26
17254;BME280;32542;52.832;13.816;2023-06-19T13:21:38;101221.13;;;24.27;54.36
17254;BME280;32542;52.832;13.816;2023-06-19T13:24:42;101221.06;;;24.28;54.30
17254;BME280;32542;52.832;13.816;2023-06-19T13:27:46;101217.41;;;24.29;54.14
17254;BME280;32542;52.832;13.816;2023-06-19T13:30:49;101223.47;;;24.33;53.89
17254;BME280;32542;52.832;13.816;2023-06-19T13:33:52;101209.91;;;24.36;54.07
17254;BME280;32542;52.832;13.816;2023-06-19T13:36:55;101209.81;;;24.37;53.48
17254;BME280;32542;52.832;13.816;2023-06-19T13:40:00;101209.56;;;24.42;53.25
17254;BME280;32542;52.832;13.816;2023-06-19T13:43:02;101206.72;;;24.45;53.11
17254;BME280;32542;52.832;13.816;2023-06-19T13:46:08;101204.84;;;24.47;53.25
17254;BME280;32542;52.832;13.816;2023-06-19T13:49:11;101202.94;;;24.49;52.81
17254;BME280;32542;52.832;13.816;2023-06-19T13:52:15;101211.75;;;24.51;52.31
17254;BME280;32542;52.832;13.816;2023-06-19T13:55:19;101200.16;;;24.50;51.92
17254;BME280;32542;52.832;13.816;2023-06-19T13:58:22;101203.69;;;24.51;51.87
17254;BME280;32542;52.832;13.816;2023-06-19T14:01:25;101205.34;;;24.53;51.60
17254;BME280;32542;52.832;13.816;2023-06-19T14:04:28;101203.50;;;24.54;51.54
17254;BME280;32542;52.832;13.816;2023-06-19T14:07:31;101201.72;;;24.54;51.51
17254;BME280;32542;52.832;13.816;2023-06-19T14:10:35;101198.00;;;24.57;51.20
17254;BME280;32542;52.832;13.816;2023-06-19T14:13:38;101199.63;;;24.59;50.98
17254;BME280;32542;52.832;13.816;2023-06-19T14:16:41;101184.44;;;24.60;50.82
17254;BME280;32542;52.832;13.816;2023-06-19T14:19:44;101191.34;;;24.64;50.25
17254;BME280;32542;52.832;13.816;2023-06-19T14:22:48;101190.38;;;24.65;49.87
17254;BME280;32542;52.832;13.816;2023-06-19T14:25:53;101196.59;;;24.65;49.94
17254;BME280;32542;52.832;13.816;2023-06-19T14:28:55;101194.81;;;24.66;49.44
17254;BME280;32542;52.832;13.816;2023-06-19T14:32:00;101189.44;;;24.66;48.53
17254;BME280;32542;52.832;13.816;2023-06-19T14:35:04;101198.25;;;24.68;48.44
17254;BME280;32542;52.832;13.816;2023-06-19T14:38:07;101195.47;;;24.69;47.92
17254;BME280;32542;52.832;13.816;2023-06-19T14:41:12;101199.81;;;24.72;48.12
17254;BME280;32542;52.832;13.816;2023-06-19T14:44:15;101201.50;;;24.73;47.85
17254;BME280;32542;52.832;13.816;2023-06-19T14:47:17;101205.06;;;24.73;48.12
17254;BME280;32542;52.832;13.816;2023-06-19T14:50:20;101206.09;;;24.71;48.27
17254;BME280;32542;52.832;13.816;2023-06-19T14:53:24;101206.44;;;24.65;48.72
17254;BME280;32542;52.832;13.816;2023-06-19T14:56:28;101213.97;;;24.58;48.93
17254;BME280;32542;52.832;13.816;2023-06-19T14:59:31;101213.44;;;24.52;48.93
17254;BME280;32542;52.832;13.816;2023-06-19T15:02:34;101206.72;;;24.45;49.35
17254;BME280;32542;52.832;13.816;2023-06-19T15:05:41;101208.69;;;24.41;50.37
17254;BME280;32542;52.832;13.816;2023-06-19T15:08:44;101207.09;;;24.39;50.36
17254;BME280;32542;52.832;13.816;2023-06-19T15:11:48;101207.25;;;24.36;49.73
17254;BME280;32542;52.832;13.816;2023-06-19T15:14:51;101202.75;;;24.36;49.73
17254;BME280;32542;52.832;13.816;2023-06-19T15:17:54;101201.44;;;24.43;49.43
17254;BME280;32542;52.832;13.816;2023-06-19T15:20:59;101202.56;;;24.55;48.79
17254;BME280;32542;52.832;13.816;2023-06-19T15:24:02;101205.69;;;24.63;48.34
17254;BME280;32542;52.832;13.816;2023-06-19T15:27:07;101197.22;;;24.70;48.60
17254;BME280;32542;52.832;13.816;2023-06-19T15:30:10;101208.44;;;24.77;48.24
17254;BME280;32542;52.832;13.816;2023-06-19T15:33:13;101200.94;;;24.84;48.13
17254;BME280;32542;52.832;13.816;2023-06-19T15:36:19;101205.09;;;24.89;47.97
17254;BME280;32542;52.832;13.816;2023-06-19T15:39:23;101201.19;;;24.95;47.81
17254;BME280;32542;52.832;13.816;2023-06-19T15:42:27;101192.88;;;24.99;47.40
17254;BME280;32542;52.832;13.816;2023-06-19T15:45:32;101200.75;;;25.02;47.48
17254;BME280;32542;52.832;13.816;2023-06-19T15:48:35;101192.50;;;25.05;47.50